Gervais, Oregon
Current Conditions -  °F | °C
As of 6:53 AM on Tuesday 21 Oct 2014 (Local Time) from KUAO Reporting Station
Broken Clouds Broken Clouds  
Wind Chill: 12°   Ceiling: 4200
Heat Index: 12°   Visibility: 10mi
Dew Point: 10°   Wind: 10mph
Humidity: 89%   Direction: 190°S
Pressure: 29.97"   Gusts: NA
Location:  45.11°N, 122.9°W
Report Text: KUAO 211353Z AUTO 19009KT 10SM FEW028 BKN042 12/10 A2997 RMK AO2 RAB06E35 SLP148 P0001 T01170100
Loading
Personal Weather Stations






























Interactive Weather Map
Tropical Storm Tracking
New forecast layout! Learn more

10-Day Weather Forecast

Advertisements
Track Severe Weather on mobile